Time;durP1;ratioP1;P1;durP2;ratioP2;P2;SDS_P1;SDS_P2;PMS_P1;PMS_P2;Temp;Humidity;BMP_temperature;BMP_pressure;BME280_temperature;BME280_humidity;BME280_pressure;Samples;Min_cycle;Max_cycle;Signal;HPM_P1;HPM_P2
2022/06/05 00:01:43;;;;;;;4.37;3.75;;;;;;;22.83;68.18;99994.81;4360825;32;35053;-87
2022/06/05 00:04:55;;;;;;;4.00;3.60;;;;;;;22.87;68.13;99986.31;4348501;32;34210;-88
2022/06/05 00:07:43;;;;;;;5.57;3.15;;;;;;;22.85;68.23;99988.31;4318668;33;32775;-88
2022/06/05 00:10:17;;;;;;;4.95;3.60;;;;;;;22.87;68.12;99996.22;4325765;33;32953;-87
2022/06/05 00:13:12;;;;;;;7.47;4.18;;;;;;;22.90;68.08;99993.28;4337706;32;33861;-88
2022/06/05 00:15:40;;;;;;;3.85;3.12;;;;;;;22.86;68.41;99987.31;4360725;32;33959;-89
2022/06/05 00:18:08;;;;;;;5.18;3.75;;;;;;;22.86;68.90;99989.16;4355520;32;32858;-90
2022/06/05 00:20:36;;;;;;;5.22;3.58;;;;;;;22.83;69.00;99986.72;4346685;32;32686;-89
2022/06/05 00:23:04;;;;;;;3.78;3.47;;;;;;;23.00;68.34;99986.06;4359712;32;32635;-90
2022/06/05 00:26:03;;;;;;;4.43;3.53;;;;;;;22.93;68.68;99974.16;4353865;32;33270;-87
2022/06/05 00:28:37;;;;;;;6.93;3.95;;;;;;;22.93;68.71;99980.41;4358745;32;33590;-87
2022/06/05 00:31:26;;;;;;;7.95;4.85;;;;;;;23.13;68.16;99983.09;4337632;32;32261;-87
2022/06/05 00:33:54;;;;;;;10.45;5.12;;;;;;;23.24;67.94;99975.69;4353961;32;34214;-87
2022/06/05 00:36:30;;;;;;;8.10;4.82;;;;;;;22.77;69.39;99974.69;4352007;32;34373;-87
2022/06/05 00:39:19;;;;;;;4.82;4.30;;;;;;;23.00;68.68;99969.91;4351764;32;32769;-88
2022/06/05 00:41:56;;;;;;;6.72;5.35;;;;;;;22.93;68.71;99958.88;4347589;32;32353;-88
2022/06/05 00:44:42;;;;;;;5.57;4.82;;;;;;;22.99;68.17;99963.69;4360178;32;33545;-87
2022/06/05 00:47:13;;;;;;;4.62;4.22;;;;;;;23.22;67.23;99963.37;4365981;32;33896;-87
2022/06/05 00:49:44;;;;;;;6.05;4.78;;;;;;;23.38;66.61;99962.78;4354168;32;34967;-87
2022/06/05 00:52:15;;;;;;;4.87;4.10;;;;;;;23.38;66.52;99955.53;4340314;32;33481;-86
2022/06/05 00:54:43;;;;;;;5.55;4.90;;;;;;;23.34;66.34;99962.19;4353661;32;34243;-87
2022/06/05 00:57:13;;;;;;;6.65;4.90;;;;;;;23.47;66.07;99959.22;4353669;32;34646;-87
2022/06/05 00:59:42;;;;;;;6.22;4.68;;;;;;;23.51;65.85;99953.38;4354069;32;32548;-87
2022/06/05 01:02:11;;;;;;;5.32;4.82;;;;;;;23.57;65.57;99957.31;4373188;32;32806;-87
2022/06/05 01:04:42;;;;;;;6.82;5.10;;;;;;;23.56;65.48;99955.63;4355950;32;33615;-87
2022/06/05 01:07:11;;;;;;;10.55;5.43;;;;;;;23.65;65.14;99954.78;4355492;32;33335;-88
2022/06/05 01:09:42;;;;;;;5.90;4.43;;;;;;;23.49;65.58;99949.97;4356259;32;33394;-88
2022/06/05 01:12:26;;;;;;;6.00;4.37;;;;;;;23.52;65.36;99946.13;4368482;32;33355;-88
2022/06/05 01:15:00;;;;;;;4.93;4.53;;;;;;;23.46;65.48;99939.50;4355910;32;32306;-88
2022/06/05 01:17:49;;;;;;;8.98;4.62;;;;;;;23.47;65.29;99945.72;4348029;32;33392;-88
2022/06/05 01:20:36;;;;;;;5.60;4.30;;;;;;;23.27;65.79;99939.53;4373818;32;32615;-88
2022/06/05 01:23:42;;;;;;;7.53;5.32;;;;;;;23.21;66.02;99940.94;4361462;32;33336;-87
2022/06/05 01:26:34;;;;;;;5.22;4.72;;;;;;;23.30;65.74;99946.47;4353504;32;33464;-89
2022/06/05 01:29:05;;;;;;;10.90;5.55;;;;;;;23.15;66.25;99940.69;4361473;32;34272;-88
2022/06/05 01:31:41;;;;;;;6.60;4.75;;;;;;;23.17;66.03;99947.66;4361814;32;33529;-87
2022/06/05 01:34:24;;;;;;;5.70;5.20;;;;;;;23.36;65.41;99940.50;4354666;32;31957;-88
2022/06/05 01:37:02;;;;;;;7.97;4.60;;;;;;;23.32;65.57;99939.09;4373134;32;34073;-86
2022/06/05 01:39:43;;;;;;;7.95;5.60;;;;;;;23.21;65.93;99945.50;4354277;32;33096;-86
2022/06/05 01:42:15;;;;;;;6.40;5.30;;;;;;;22.85;67.19;99950.59;4356017;32;33063;-86
2022/06/05 01:44:45;;;;;;;5.82;5.22;;;;;;;23.02;66.76;99945.50;4359799;32;33839;-85
2022/06/05 01:47:22;;;;;;;5.30;4.45;;;;;;;23.38;65.52;99946.59;4359647;32;31872;-86
2022/06/05 01:49:57;;;;;;;7.62;5.10;;;;;;;23.38;65.61;99952.84;4354519;32;34032;-87
2022/06/05 01:52:45;;;;;;;5.82;5.05;;;;;;;23.57;65.04;99951.09;4353127;32;33343;-86
2022/06/05 01:55:26;;;;;;;7.68;5.30;;;;;;;23.37;65.58;99944.91;4356702;32;33878;-87
2022/06/05 01:57:57;;;;;;;5.82;5.22;;;;;;;23.24;65.89;99940.66;4356235;32;34210;-87
2022/06/05 02:00:25;;;;;;;6.05;5.53;;;;;;;23.06;66.55;99942.41;4355792;32;33717;-87
2022/06/05 02:03:08;;;;;;;5.15;4.60;;;;;;;23.22;65.90;99942.66;4359963;32;32262;-87
2022/06/05 02:05:45;;;;;;;5.87;5.05;;;;;;;23.30;65.63;99943.78;4353031;32;32439;-87
2022/06/05 02:08:18;;;;;;;8.95;5.43;;;;;;;23.30;65.53;99943.78;4358927;32;33076;-87
2022/06/05 02:10:51;;;;;;;;;;;;;;;23.30;65.40;99943.78;4353096;32;32927;-87
2022/06/05 02:13:19;;;;;;;5.30;4.80;;;;;;;23.12;65.91;99955.31;4359815;32;33154;-87
2022/06/05 02:15:48;;;;;;;5.85;5.03;;;;;;;23.16;65.71;99954.00;4354845;32;32706;-88
2022/06/05 02:18:16;;;;;;;6.82;5.15;;;;;;;23.37;64.96;99953.00;4339282;32;34116;-88
2022/06/05 02:20:44;;;;;;;5.62;4.90;;;;;;;23.21;65.51;99954.41;4354336;32;34371;-88
2022/06/05 02:23:15;;;;;;;6.70;5.78;;;;;;;22.99;66.35;99952.91;4352581;32;34615;-88
2022/06/05 02:25:44;;;;;;;14.43;6.37;;;;;;;22.84;66.95;99948.91;4357283;32;32629;-89
2022/06/05 02:28:14;;;;;;;5.95;4.90;;;;;;;23.00;66.35;99951.06;4332578;32;32146;-88
2022/06/05 02:31:05;;;;;;;5.85;5.32;;;;;;;23.08;65.90;99951.19;4332507;32;33319;-88
2022/06/05 02:33:55;;;;;;;6.25;4.90;;;;;;;22.98;66.17;99945.81;4334205;32;32679;-88
2022/06/05 02:36:47;;;;;;;6.22;4.85;;;;;;;22.97;66.22;99956.72;4358538;32;32287;-88
2022/06/05 02:39:25;;;;;;;5.28;4.80;;;;;;;22.86;66.15;99936.16;4361889;32;34439;-88
2022/06/05 02:42:14;;;;;;;7.18;5.37;;;;;;;22.60;66.94;99935.88;4362162;32;32927;-87
2022/06/05 02:45:17;;;;;;;6.32;4.93;;;;;;;22.65;66.71;99944.38;4340622;33;33093;-88
2022/06/05 02:48:02;;;;;;;5.65;5.15;;;;;;;22.71;66.28;99943.81;4366068;32;33440;-88
2022/06/05 02:50:43;;;;;;;6.53;5.40;;;;;;;22.78;65.98;99941.38;4369028;32;32798;-87
2022/06/05 02:53:12;;;;;;;7.22;5.25;;;;;;;22.67;66.36;99942.38;4368439;32;32265;-87
2022/06/05 02:55:44;;;;;;;4.97;4.57;;;;;;;22.56;66.65;99944.38;4364465;32;33851;-86
2022/06/05 02:58:13;;;;;;;7.05;5.15;;;;;;;22.48;66.84;99947.75;4364412;32;33349;-86
2022/06/05 03:03:27;;;;;;;6.18;5.57;;;;;;;22.63;66.26;99951.72;4354977;32;33401;-86
2022/06/05 03:03:32;;;;;;;6.30;5.72;;;;;;;22.45;66.89;99948.00;4373015;32;34169;-88
2022/06/05 03:06:03;;;;;;;6.90;5.05;;;;;;;22.45;66.76;99948.00;4354656;32;33125;-88
2022/06/05 03:08:31;;;;;;;5.73;5.13;;;;;;;22.38;66.84;99947.72;4366458;32;32999;-88
2022/06/05 03:10:58;;;;;;;5.40;4.90;;;;;;;22.40;66.68;99951.12;4365736;32;34148;-88
2022/06/05 03:13:27;;;;;;;7.80;5.60;;;;;;;22.34;66.91;99958.91;4364740;32;33899;-89
2022/06/05 03:15:54;;;;;;;7.75;5.43;;;;;;;22.37;66.73;99962.19;4366600;32;34665;-88
2022/06/05 03:18:22;;;;;;;6.30;5.70;;;;;;;22.35;66.76;99945.31;4354166;32;31893;-88
2022/06/05 03:20:56;;;;;;;6.57;5.00;;;;;;;22.33;66.97;99959.91;4364399;32;33282;-87
2022/06/05 03:23:27;;;;;;;6.03;4.95;;;;;;;22.27;67.14;99955.94;4371297;32;33565;-87
2022/06/05 03:25:55;;;;;;;7.10;5.43;;;;;;;22.28;67.10;99959.47;4368985;32;33824;-88
2022/06/05 03:28:23;;;;;;;6.20;5.60;;;;;;;22.38;66.76;99944.19;4363107;32;32500;-88
2022/06/05 03:30:51;;;;;;;6.03;4.85;;;;;;;22.34;66.93;99957.06;4353732;32;33141;-88
2022/06/05 03:33:19;;;;;;;6.87;5.37;;;;;;;22.39;66.74;99964.72;4365383;32;32893;-88
2022/06/05 03:43:51;;;;;;;6.70;5.32;;;;;;;22.39;66.99;99981.72;4371321;32;33556;-88
2022/06/05 03:46:19;;;;;;;6.78;5.93;;;;;;;22.40;66.87;99986.09;4345690;32;33369;-89
2022/06/05 03:48:47;;;;;;;6.07;5.47;;;;;;;22.40;66.96;99996.00;4370753;32;33320;-88
2022/06/05 03:51:18;;;;;;;29.63;6.12;;;;;;;22.39;67.08;99999.69;4355285;32;32153;-88
2022/06/05 03:53:46;;;;;;;6.40;5.43;;;;;;;22.43;67.03;100009.19;4356316;32;34404;-87
2022/06/05 03:56:19;;;;;;;6.03;5.43;;;;;;;22.45;67.12;100007.22;4365784;32;35256;-87
2022/06/05 03:58:48;;;;;;;7.43;5.15;;;;;;;22.56;66.80;100015.19;4343429;32;32651;-87
2022/06/05 04:01:20;;;;;;;8.50;5.95;;;;;;;22.55;67.07;100018.00;4357105;32;33835;-87
2022/06/05 04:03:49;;;;;;;7.03;6.32;;;;;;;22.48;67.52;100012.31;4357375;32;34088;-85
2022/06/05 04:06:21;;;;;;;6.47;5.87;;;;;;;22.45;67.98;100012.59;4355179;32;33244;-85
2022/06/05 04:08:50;;;;;;;6.05;5.45;;;;;;;22.69;67.70;100014.91;4359850;32;32744;-85
2022/06/05 04:11:18;;;;;;;6.60;5.93;;;;;;;22.68;67.92;100024.81;4355821;32;32937;-85
2022/06/05 04:13:47;;;;;;;8.07;5.57;;;;;;;22.74;68.05;100026.97;4367508;32;34196;-85
2022/06/05 04:16:17;;;;;;;10.05;5.95;;;;;;;22.98;67.24;100023.06;4355685;32;34885;-85
2022/06/05 04:18:45;;;;;;;8.82;6.87;;;;;;;22.98;67.48;100028.47;4355182;32;34348;-86
2022/06/05 04:21:19;;;;;;;9.02;6.40;;;;;;;22.98;67.82;100039.22;4367456;32;32910;-86
2022/06/05 04:23:49;;;;;;;7.95;6.47;;;;;;;22.93;68.25;100033.37;4342247;32;33081;-85
2022/06/05 04:26:22;;;;;;;10.07;7.82;;;;;;;23.17;67.56;100024.91;4365399;32;34847;-87
2022/06/05 04:28:53;;;;;;;9.38;7.95;;;;;;;23.09;68.28;100033.69;4341137;32;96053;-86
2022/06/05 04:31:30;;;;;;;9.82;7.93;;;;;;;23.07;68.35;100040.19;4363287;32;32608;-87
2022/06/05 04:34:00;;;;;;;8.82;7.90;;;;;;;23.39;67.30;100045.31;4355676;32;33318;-87
2022/06/05 04:36:29;;;;;;;11.52;8.48;;;;;;;23.18;67.84;100043.63;4367385;32;34395;-85
2022/06/05 04:38:58;;;;;;;13.15;10.82;;;;;;;23.25;67.83;100050.13;4353633;32;32593;-85
2022/06/05 04:41:26;;;;;;;14.20;10.95;;;;;;;22.88;68.79;100049.06;4369574;32;33483;-85
2022/06/05 04:43:55;;;;;;;13.45;11.02;;;;;;;22.86;69.20;100048.38;4352701;32;34255;-85
2022/06/05 04:46:26;;;;;;;12.50;11.20;;;;;;;22.97;69.04;100034.81;4366188;32;33713;-85
2022/06/05 04:51:36;;;;;;;16.27;11.77;;;;;;;22.56;70.67;100052.84;4371388;32;34161;-86
2022/06/05 04:54:06;;;;;;;;;;;;;;;22.93;69.34;100057.63;4358875;32;32871;-86
2022/06/05 04:56:35;;;;;;;16.73;12.55;;;;;;;22.78;70.00;100061.69;4371071;32;33534;-86
2022/06/05 04:59:05;;;;;;;13.80;11.43;;;;;;;22.89;69.38;100065.16;4363541;32;33348;-85
2022/06/05 05:01:37;;;;;;;17.27;11.48;;;;;;;22.39;71.37;100061.56;4366213;32;33364;-86
2022/06/05 05:04:12;;;;;;;16.12;11.18;;;;;;;22.39;71.58;100064.25;4351673;32;33736;-85
2022/06/05 05:06:42;;;;;;;13.27;11.07;;;;;;;22.63;70.82;100069.28;4370280;32;33649;-86
2022/06/05 05:09:10;;;;;;;16.02;10.38;;;;;;;22.44;71.57;100070.09;4363714;32;32593;-86
2022/06/05 05:11:38;;;;;;;16.50;11.48;;;;;;;22.53;71.32;100080.03;4370675;32;32790;-86
2022/06/05 05:14:10;;;;;;;15.18;11.98;;;;;;;22.70;70.43;100087.47;4363365;32;33911;-86
2022/06/05 05:16:44;;;;;;;16.23;12.52;;;;;;;22.65;70.60;100095.09;4370646;32;33107;-86
2022/06/05 05:19:13;;;;;;;22.65;12.43;;;;;;;22.34;71.71;100096.09;4357219;32;34456;-86
2022/06/05 05:21:42;;;;;;;20.12;14.05;;;;;;;22.45;71.38;100106.75;4346642;32;33342;-86
2022/06/05 05:24:12;;;;;;;21.75;15.02;;;;;;;22.30;71.58;100108.13;4370523;32;33803;-85
2022/06/05 05:26:41;;;;;;;21.08;14.75;;;;;;;22.45;71.19;100113.00;4367426;32;33236;-86
2022/06/05 05:29:10;;;;;;;19.15;14.60;;;;;;;22.38;71.42;100114.53;4364262;32;33377;-85
2022/06/05 05:31:40;;;;;;;22.77;13.82;;;;;;;22.12;72.29;100122.19;4365419;32;33736;-85
2022/06/05 05:34:10;;;;;;;18.10;12.30;;;;;;;22.47;70.71;100120.94;4357329;32;34261;-85
2022/06/05 05:36:38;;;;;;;17.12;12.63;;;;;;;22.22;71.28;100116.88;4346391;32;32853;-86
2022/06/05 05:42:05;;;;;;;15.98;11.77;;;;;;;22.18;72.69;100123.50;4360811;32;31984;-85
2022/06/05 05:47:20;;;;;;;14.85;11.18;;;;;;;22.57;69.77;100119.16;4369957;32;33329;-86
2022/06/05 05:50:01;;;;;;;14.13;9.98;;;;;;;22.73;70.06;100114.09;4368491;32;33860;-86
2022/06/05 05:52:31;;;;;;;17.77;10.40;;;;;;;22.62;69.37;100108.81;4369201;32;33034;-86
2022/06/05 05:55:04;;;;;;;11.52;8.52;;;;;;;22.69;68.97;100110.00;4367545;32;33149;-86
2022/06/05 05:57:50;;;;;;;12.07;7.85;;;;;;;23.01;67.99;100111.63;4367055;32;33639;-86
2022/06/05 06:00:20;;;;;;;10.85;8.57;;;;;;;22.97;68.80;100110.22;4356134;32;34756;-86
2022/06/05 06:02:49;;;;;;;13.27;9.73;;;;;;;23.02;67.76;100107.94;4374341;32;33331;-85
2022/06/05 06:05:22;;;;;;;12.77;8.70;;;;;;;22.89;68.13;100102.84;4368053;32;32909;-85
2022/06/05 06:07:50;;;;;;;10.57;8.00;;;;;;;22.84;68.09;100110.47;4369320;32;35384;-85
2022/06/05 06:10:23;;;;;;;8.05;7.05;;;;;;;22.88;67.32;100105.63;4359428;32;34403;-84
2022/06/05 06:12:53;;;;;;;7.30;6.55;;;;;;;22.60;67.54;100118.00;4370770;32;33214;-84
2022/06/05 06:15:29;;;;;;;10.30;6.12;;;;;;;22.63;67.78;100112.34;4367132;32;34350;-84
2022/06/05 06:17:59;;;;;;;7.55;5.97;;;;;;;22.69;67.22;100107.31;4362771;32;34432;-85
2022/06/05 06:20:30;;;;;;;9.50;6.32;;;;;;;22.06;69.14;100100.31;4375198;32;34129;-85
2022/06/05 06:22:59;;;;;;;8.20;6.28;;;;;;;22.53;68.35;100106.09;4355358;32;33526;-85
2022/06/05 06:25:29;;;;;;;7.87;6.10;;;;;;;22.58;68.28;100098.47;4366896;32;34317;-85
2022/06/05 06:27:59;;;;;;;7.87;6.28;;;;;;;22.99;66.78;100090.25;4373957;32;34102;-86
2022/06/05 06:30:28;;;;;;;6.47;5.12;;;;;;;23.08;65.83;100093.09;4369224;32;32393;-86
2022/06/05 06:32:57;;;;;;;6.28;5.07;;;;;;;23.43;64.53;100087.16;4367041;32;33702;-85
2022/06/05 06:35:26;;;;;;;9.18;6.20;;;;;;;23.79;63.61;100084.75;4374373;32;33873;-87
2022/06/05 06:37:56;;;;;;;9.73;6.07;;;;;;;23.88;63.78;100091.94;4361662;32;34876;-86
2022/06/05 06:40:34;;;;;;;5.82;4.70;;;;;;;23.88;62.55;100091.94;4367877;32;34356;-89
2022/06/05 06:45:56;;;;;;;9.02;6.28;;;;;;;23.73;63.48;100092.38;4362523;32;32684;-89
2022/06/05 06:48:37;;;;;;;8.80;5.30;;;;;;;23.57;64.31;100099.34;4364423;32;35755;-88
2022/06/05 06:51:09;;;;;;;6.55;5.32;;;;;;;23.50;63.12;100088.28;4363705;32;33900;-89
2022/06/05 06:53:39;;;;;;;7.80;5.12;;;;;;;23.68;63.16;100081.19;4353186;32;33761;-88
2022/06/05 06:56:12;;;;;;;8.80;5.05;;;;;;;23.82;63.03;100073.66;4353857;32;32695;-89
2022/06/05 06:58:41;;;;;;;7.60;6.18;;;;;;;23.92;61.88;100077.16;4352712;32;32577;-89
2022/06/05 07:01:14;;;;;;;6.50;5.78;;;;;;;23.72;63.13;100079.91;4349321;32;34006;-89
2022/06/05 07:06:25;;;;;;;9.18;6.28;;;;;;;23.51;63.06;100081.91;4356486;32;32870;-88
2022/06/05 07:08:53;;;;;;;8.93;6.93;;;;;;;23.85;62.40;100074.22;4349024;32;34029;-89
2022/06/05 07:11:27;;;;;;;7.00;6.30;;;;;;;23.65;64.02;100073.41;4370737;32;33187;-90
2022/06/05 07:16:39;;;;;;;8.95;6.53;;;;;;;24.18;61.69;100072.84;4356501;32;33777;-88
2022/06/05 07:19:09;;;;;;;8.63;7.00;;;;;;;24.38;60.35;100070.94;4345929;32;34123;-89
2022/06/05 07:21:37;;;;;;;7.12;5.90;;;;;;;24.18;60.63;100064.75;4348799;32;33515;-87
2022/06/05 07:24:06;;;;;;;8.10;6.50;;;;;;;24.75;59.98;100060.06;4363101;32;33367;-89
2022/06/05 07:26:36;;;;;;;9.45;5.85;;;;;;;24.50;59.90;100064.34;4361661;32;33801;-88
2022/06/05 07:29:07;;;;;;;8.90;7.10;;;;;;;24.42;60.56;100066.09;4367391;32;32817;-85
2022/06/05 07:31:44;;;;;;;7.15;6.20;;;;;;;24.31;60.10;100075.22;4352589;32;34045;-88
2022/06/05 07:34:15;;;;;;;9.52;7.00;;;;;;;24.46;59.64;100064.78;4368462;32;31012;-86
2022/06/05 07:36:45;;;;;;;6.75;6.05;;;;;;;24.54;59.77;100072.97;4367757;32;33681;-84
2022/06/05 07:39:15;;;;;;;6.75;6.12;;;;;;;24.74;59.45;100071.88;4360225;32;33750;-85
2022/06/05 07:41:51;;;;;;;8.13;5.10;;;;;;;24.84;58.53;100081.78;4371225;32;35787;-84
2022/06/05 07:44:19;;;;;;;6.32;5.00;;;;;;;24.78;58.80;100072.41;4363351;32;32939;-85
2022/06/05 07:46:52;;;;;;;7.32;5.87;;;;;;;25.10;60.10;100074.66;4346331;32;33087;-85
2022/06/05 07:49:26;;;;;;;8.60;6.43;;;;;;;24.97;57.83;100082.25;4374704;32;32512;-85
2022/06/05 07:54:49;;;;;;;8.45;5.87;;;;;;;25.13;57.46;100079.75;4349721;32;32294;-85
2022/06/05 07:57:22;;;;;;;7.32;6.62;;;;;;;25.13;57.75;100087.84;4350610;32;33831;-85
2022/06/05 07:59:52;;;;;;;10.27;6.57;;;;;;;24.72;58.49;100087.38;4349808;32;32998;-85
2022/06/05 08:02:24;;;;;;;7.95;6.68;;;;;;;24.93;58.85;100083.56;4350092;32;33938;-86
2022/06/05 08:04:58;;;;;;;11.07;6.50;;;;;;;25.40;58.27;100081.53;4363866;32;32528;-85
2022/06/05 08:13:04;;;;;;;8.45;6.50;;;;;;;24.81;58.23;100092.88;4366933;32;35464;-85
2022/06/05 08:15:35;;;;;;;6.87;6.18;;;;;;;24.92;58.70;100089.94;4372115;32;33235;-85
2022/06/05 08:18:04;;;;;;;8.82;6.37;;;;;;;25.12;58.41;100085.31;4364620;32;34376;-86
2022/06/05 08:20:34;;;;;;;6.87;5.90;;;;;;;25.26;56.92;100074.81;4364856;32;33920;-86
2022/06/05 08:25:37;;;;;;;9.77;6.22;;;;;;;25.43;56.89;100078.50;4376933;32;33140;-83
2022/06/05 08:28:08;;;;;;;7.22;5.47;;;;;;;25.59;56.80;100088.63;4355909;32;32101;-84
2022/06/05 08:30:41;;;;;;;7.50;6.40;;;;;;;25.74;56.10;100075.38;4355513;32;32993;-86
2022/06/05 08:33:23;;;;;;;8.02;7.20;;;;;;;25.63;57.02;100095.38;4373520;32;34429;-87
2022/06/05 08:35:55;;;;;;;9.13;6.07;;;;;;;25.29;58.11;100101.53;4377838;32;33559;-87
2022/06/05 08:41:28;;;;;;;7.55;5.72;;;;;;;25.81;56.41;100086.44;4370751;32;33725;-87
2022/06/05 08:44:09;;;;;;;7.70;6.07;;;;;;;25.79;55.49;100092.00;4376574;32;34219;-87
2022/06/05 08:46:51;;;;;;;12.77;7.85;;;;;;;25.69;56.42;100092.09;4371398;32;33117;-86
2022/06/05 08:49:30;;;;;;;8.52;6.40;;;;;;;26.20;54.50;100098.53;4359839;32;32441;-86
2022/06/05 08:55:01;;;;;;;6.22;5.32;;;;;;;26.10;54.17;100095.09;4376497;32;33668;-86
2022/06/05 08:57:44;;;;;;;6.22;5.50;;;;;;;26.16;53.82;100091.75;4349537;32;33346;-87
2022/06/05 09:00:31;;;;;;;7.82;5.72;;;;;;;26.45;55.11;100085.16;4350231;32;35507;-86
2022/06/05 09:03:10;;;;;;;7.45;5.97;;;;;;;26.37;54.03;100082.38;4349879;32;34240;-86
2022/06/05 09:05:41;;;;;;;7.00;6.30;;;;;;;26.58;53.21;100090.97;4349362;32;33916;-86
2022/06/05 09:08:21;;;;;;;9.32;6.22;;;;;;;26.53;53.06;100082.47;4372691;32;32074;-87
2022/06/05 09:10:52;;;;;;;6.32;5.72;;;;;;;26.17;54.80;100079.91;4370403;32;33994;-86
2022/06/05 09:13:30;;;;;;;8.13;5.45;;;;;;;26.61;54.32;100068.97;4358129;32;32903;-86
2022/06/05 09:16:06;;;;;;;6.10;5.50;;;;;;;26.85;53.38;100064.66;4353021;32;34663;-86
2022/06/05 09:18:38;;;;;;;5.90;5.40;;;;;;;26.97;53.71;100064.19;4363618;32;32613;-86
2022/06/05 09:24:20;;;;;;;6.28;5.47;;;;;;;26.90;54.64;100076.69;4366647;32;33655;-87
2022/06/05 09:27:02;;;;;;;6.85;5.82;;;;;;;26.94;54.57;100077.19;4365838;32;33263;-86
2022/06/05 09:29:54;;;;;;;8.02;6.60;;;;;;;27.04;53.87;100069.75;4378230;32;34365;-86
2022/06/05 09:32:35;;;;;;;8.38;6.00;;;;;;;27.00;52.85;100074.66;4373291;32;33963;-87
2022/06/05 09:35:25;;;;;;;7.03;6.12;;;;;;;27.38;51.80;100066.09;4365951;32;34767;-86
2022/06/05 09:38:01;;;;;;;10.82;6.80;;;;;;;27.46;52.91;100074.25;4358507;32;32917;-85
2022/06/05 09:40:34;;;;;;;10.80;6.85;;;;;;;27.19;51.33;100073.53;4370537;32;32404;-84
2022/06/05 09:43:11;;;;;;;7.25;6.55;;;;;;;27.42;49.99;100079.16;4365762;32;32920;-84
2022/06/05 09:48:52;;;;;;;8.45;6.85;;;;;;;27.21;51.25;100089.66;4360625;32;34617;-86
2022/06/05 09:51:21;;;;;;;8.73;6.28;;;;;;;26.74;52.62;100096.44;4360393;32;34002;-86
2022/06/05 09:54:09;;;;;;;7.30;6.53;;;;;;;26.63;51.84;100099.44;4345020;32;34311;-86
2022/06/05 10:00:01;;;;;;;7.55;6.78;;;;;;;26.44;52.54;100100.53;4362099;32;33510;-86
2022/06/05 10:02:33;;;;;;;7.40;6.70;;;;;;;26.25;52.93;100107.03;4351203;32;33294;-85
2022/06/05 10:05:12;;;;;;;7.10;6.18;;;;;;;26.51;51.95;100106.19;4353870;32;33318;-86
2022/06/05 10:07:52;;;;;;;7.07;6.37;;;;;;;26.24;53.32;100099.91;4348091;33;34370;-86
2022/06/05 10:10:27;;;;;;;10.20;6.32;;;;;;;26.91;51.55;100099.19;4348822;32;34630;-85
2022/06/05 10:13:05;;;;;;;10.20;7.75;;;;;;;26.75;50.38;100117.09;4338875;32;32167;-85
2022/06/05 10:15:45;;;;;;;9.20;6.70;;;;;;;26.69;49.77;100103.38;4337278;32;32995;-86
2022/06/05 10:18:23;;;;;;;12.32;6.65;;;;;;;26.25;53.89;100104.34;4350790;32;33770;-85
2022/06/05 10:21:01;;;;;;;7.03;6.43;;;;;;;26.89;51.39;100102.09;4359583;32;34131;-86
2022/06/05 10:23:49;;;;;;;8.88;6.28;;;;;;;26.51;50.66;100108.88;4337622;32;32288;-85
2022/06/05 10:26:48;;;;;;;9.82;6.47;;;;;;;26.77;51.12;100100.69;4362690;32;33601;-86
2022/06/05 10:29:23;;;;;;;5.87;5.37;;;;;;;26.63;50.51;100095.88;4344422;32;33644;-86
2022/06/05 10:32:02;;;;;;;7.47;6.03;;;;;;;26.94;48.87;100079.91;4348834;32;33594;-85
2022/06/05 10:34:46;;;;;;;6.15;5.65;;;;;;;26.69;51.43;100082.56;4347017;32;34167;-85
2022/06/05 10:37:36;;;;;;;7.35;5.22;;;;;;;26.83;48.64;100082.94;4348824;33;33251;-85
2022/06/05 10:40:19;;;;;;;5.90;5.15;;;;;;;27.00;47.25;100071.09;4346003;32;32941;-85
2022/06/05 10:42:53;;;;;;;5.32;4.55;;;;;;;26.98;47.81;100067.72;4358331;32;32683;-86
2022/06/05 10:45:38;;;;;;;6.55;4.95;;;;;;;27.60;45.23;100067.31;4363052;32;32125;-86
2022/06/05 10:48:44;;;;;;;4.82;4.43;;;;;;;27.45;45.97;100056.28;4362674;32;34151;-86
2022/06/05 10:51:39;;;;;;;6.18;5.07;;;;;;;27.60;45.19;100062.72;4362826;32;33332;-85
2022/06/05 10:54:23;;;;;;;4.62;4.12;;;;;;;27.58;45.20;100051.19;4359053;32;34270;-86
2022/06/05 10:57:25;;;;;;;4.68;4.18;;;;;;;27.84;44.13;100051.03;4378706;32;32727;-85
2022/06/05 11:00:03;;;;;;;4.25;3.85;;;;;;;27.68;43.48;100054.59;4365765;32;33962;-86
2022/06/05 11:02:52;;;;;;;4.20;3.83;;;;;;;27.49;44.01;100052.22;4378713;32;33647;-86
2022/06/05 11:06:03;;;;;;;21.20;4.72;;;;;;;27.92;42.29;100047.47;4377850;32;33655;-85
2022/06/05 11:08:52;;;;;;;16.95;5.55;;;;;;;27.83;42.92;100043.91;4365108;32;33321;-86
2022/06/05 11:14:24;;;;;;;5.25;3.70;;;;;;;28.14;40.80;100029.56;4367242;32;33939;-85
2022/06/05 11:17:20;;;;;;;4.75;4.05;;;;;;;27.76;42.83;100038.31;4366013;32;33989;-85
2022/06/05 11:19:55;;;;;;;5.18;3.83;;;;;;;27.91;41.55;100043.87;4377431;32;33516;-86
2022/06/05 11:22:26;;;;;;;5.85;4.30;;;;;;;28.27;41.17;100052.44;4378630;32;33639;-86
2022/06/05 11:25:29;;;;;;;5.07;3.10;;;;;;;28.01;40.58;100044.56;4364580;32;32950;-86
2022/06/05 11:28:28;;;;;;;3.50;3.20;;;;;;;28.17;40.70;100054.50;4344387;32;33087;-85
2022/06/05 11:31:34;;;;;;;3.83;3.53;;;;;;;28.06;40.51;100049.47;4377354;32;32720;-86
2022/06/05 11:34:41;;;;;;;4.15;3.85;;;;;;;28.21;44.68;100049.56;4353134;32;33647;-86
2022/06/05 11:37:44;;;;;;;4.62;3.60;;;;;;;28.64;39.78;100037.37;4360776;32;34524;-86
2022/06/05 11:40:27;;;;;;;3.78;3.45;;;;;;;28.06;40.58;100044.03;4365895;32;34517;-85
2022/06/05 11:43:15;;;;;;;4.12;3.60;;;;;;;27.80;42.58;100050.50;4361119;32;33362;-86
2022/06/05 11:45:55;;;;;;;3.67;3.30;;;;;;;27.71;42.74;100046.12;4374678;32;33722;-86
2022/06/05 11:48:30;;;;;;;4.57;3.45;;;;;;;28.04;41.59;100032.47;4362463;32;33731;-86
2022/06/05 11:51:10;;;;;;;4.70;3.80;;;;;;;28.20;40.10;100028.84;4374167;32;33868;-85
2022/06/05 11:53:56;;;;;;;4.45;4.05;;;;;;;28.56;39.46;100023.81;4374795;32;32737;-86
2022/06/05 11:56:34;;;;;;;5.97;4.20;;;;;;;28.78;39.82;100028.44;4352883;32;33181;-86
2022/06/05 11:59:17;;;;;;;4.55;3.55;;;;;;;28.42;39.99;100021.84;4348478;33;34717;-85
2022/06/05 12:01:53;;;;;;;4.07;3.78;;;;;;;28.24;40.72;100022.06;4323373;33;33440;-86
2022/06/05 12:04:50;;;;;;;4.15;3.78;;;;;;;28.15;45.21;100021.22;4322925;33;33728;-85
2022/06/05 12:07:22;;;;;;;5.55;4.22;;;;;;;27.69;42.14;100004.72;4339522;32;33966;-84
2022/06/05 12:10:28;;;;;;;3.90;3.47;;;;;;;27.74;41.25;99996.94;4349741;32;33533;-84
2022/06/05 12:13:30;;;;;;;4.47;3.50;;;;;;;28.08;42.68;99998.53;4344312;32;34866;-86
2022/06/05 12:16:09;;;;;;;3.67;3.35;;;;;;;28.53;40.97;99986.13;4337473;32;32971;-86
2022/06/05 12:18:53;;;;;;;3.92;3.62;;;;;;;28.51;40.33;99980.03;4350424;32;34366;-85
2022/06/05 12:21:27;;;;;;;4.28;3.87;;;;;;;28.19;40.36;99986.44;4348130;32;33629;-85
2022/06/05 12:24:04;;;;;;;4.45;2.90;;;;;;;28.66;39.28;99980.13;4354310;32;34134;-85
2022/06/05 12:26:51;;;;;;;4.22;3.83;;;;;;;28.26;40.03;99984.72;4353301;32;33396;-85
2022/06/05 12:29:25;;;;;;;3.33;3.10;;;;;;;28.63;39.07;99980.47;4349725;32;33805;-86
2022/06/05 12:32:14;;;;;;;4.43;3.67;;;;;;;28.38;40.63;99985.19;4354166;32;34766;-85
2022/06/05 12:34:50;;;;;;;7.55;3.22;;;;;;;28.75;38.50;99974.44;4349810;32;33534;-85
2022/06/05 12:37:33;;;;;;;3.90;3.47;;;;;;;29.33;38.01;99956.66;4350306;32;33258;-85
2022/06/05 12:40:04;;;;;;;3.53;3.22;;;;;;;28.92;38.51;99958.03;4350770;32;33498;-85
2022/06/05 12:42:41;;;;;;;3.83;3.45;;;;;;;28.60;38.04;99959.97;4342554;32;33452;-84
2022/06/05 12:45:20;;;;;;;4.32;3.65;;;;;;;29.00;38.75;99958.00;4368657;32;33937;-84
2022/06/05 12:48:11;;;;;;;5.12;3.22;;;;;;;28.73;37.75;99965.66;4363854;32;33403;-85
2022/06/05 12:50:52;;;;;;;5.20;3.80;;;;;;;28.74;39.20;99951.03;4353106;32;32814;-84
2022/06/05 12:53:46;;;;;;;4.07;3.10;;;;;;;28.93;38.19;99948.84;4359868;32;33577;-84
2022/06/05 12:56:43;;;;;;;4.07;3.00;;;;;;;29.38;36.64;99934.34;4371504;32;34695;-84
2022/06/05 12:59:40;;;;;;;3.62;3.33;;;;;;;28.64;37.81;99936.84;4361554;32;34062;-84
2022/06/05 13:02:26;;;;;;;3.87;3.47;;;;;;;29.34;39.19;99936.62;4353141;32;34512;-85
2022/06/05 13:07:54;;;;;;;4.78;3.45;;;;;;;29.49;35.53;99930.38;4369010;32;34948;-84